createdAt,value
2018-05-27T00:00:52.340Z,22.53
2018-05-27T00:03:19.763Z,22.10
2018-05-27T00:05:47.151Z,24.23
2018-05-27T00:08:14.544Z,21.83
2018-05-27T00:10:41.934Z,21.07
2018-05-27T00:13:09.322Z,22.63
2018-05-27T00:15:36.790Z,22.47
2018-05-27T00:18:04.185Z,23.07
2018-05-27T00:20:31.628Z,21.77
2018-05-27T00:22:58.999Z,22.20
2018-05-27T00:25:26.407Z,21.60
2018-05-27T00:27:53.786Z,21.00
2018-05-27T00:30:21.182Z,21.73
2018-05-27T00:32:48.579Z,20.50
2018-05-27T00:35:15.967Z,22.47
2018-05-27T00:37:43.363Z,22.37
2018-05-27T00:40:10.755Z,22.00
2018-05-27T00:42:38.272Z,21.27
2018-05-27T00:45:05.662Z,22.20
2018-05-27T00:47:33.060Z,23.20
2018-05-27T00:50:00.448Z,21.40
2018-05-27T00:52:27.839Z,21.27
2018-05-27T00:54:55.231Z,22.83
2018-05-27T00:57:22.629Z,21.70
2018-05-27T00:59:50.020Z,22.27
2018-05-27T01:02:17.412Z,22.97
2018-05-27T01:04:44.836Z,21.73
2018-05-27T01:07:12.215Z,21.80
2018-05-27T01:09:39.619Z,23.80
2018-05-27T01:12:07.414Z,23.10
2018-05-27T01:14:34.805Z,21.67
2018-05-27T01:17:02.198Z,23.50
2018-05-27T01:19:29.586Z,21.90
2018-05-27T01:21:56.978Z,23.40
2018-05-27T01:24:24.379Z,23.53
2018-05-27T01:26:51.775Z,24.07
2018-05-27T01:29:19.158Z,24.70
2018-05-27T01:31:46.564Z,22.83
2018-05-27T01:34:13.948Z,24.50
2018-05-27T01:36:41.336Z,23.93
2018-05-27T01:39:08.723Z,23.60
2018-05-27T01:41:36.111Z,23.00
2018-05-27T01:44:03.511Z,24.30
2018-05-27T01:46:30.899Z,24.10
2018-05-27T01:48:58.294Z,23.07
2018-05-27T01:51:25.678Z,23.30
2018-05-27T01:53:53.083Z,24.10
2018-05-27T01:56:20.471Z,22.57
2018-05-27T01:58:47.863Z,22.60
2018-05-27T02:01:15.264Z,22.97
2018-05-27T02:03:42.655Z,22.80
2018-05-27T02:06:10.047Z,21.80
2018-05-27T02:08:37.464Z,24.47
2018-05-27T02:11:04.862Z,23.27
2018-05-27T02:13:32.251Z,24.23
2018-05-27T02:15:59.642Z,23.87
2018-05-27T02:18:27.037Z,25.50
2018-05-27T02:20:54.435Z,24.50
2018-05-27T02:23:21.827Z,24.27
2018-05-27T02:25:49.222Z,24.70
2018-05-27T02:28:16.615Z,24.47
2018-05-27T02:30:44.000Z,25.00
2018-05-27T02:33:11.392Z,23.70
2018-05-27T02:35:38.775Z,23.87
2018-05-27T02:38:06.175Z,23.40
2018-05-27T02:40:33.566Z,24.23
2018-05-27T02:43:00.959Z,24.80
2018-05-27T02:45:28.355Z,23.37
2018-05-27T02:47:55.752Z,24.53
2018-05-27T02:50:23.289Z,22.70
2018-05-27T02:52:51.142Z,24.37
2018-05-27T02:55:18.531Z,24.13
2018-05-27T02:57:46.071Z,23.90
2018-05-27T03:00:13.469Z,24.00
2018-05-27T03:02:40.864Z,24.23
2018-05-27T03:05:08.260Z,24.20
2018-05-27T03:07:35.651Z,24.70
2018-05-27T03:10:03.051Z,24.47
2018-05-27T03:12:30.468Z,23.60
2018-05-27T03:14:58.073Z,23.30
2018-05-27T03:17:25.459Z,24.70
2018-05-27T03:19:52.845Z,24.37
2018-05-27T03:22:20.236Z,24.50
2018-05-27T03:24:47.627Z,24.97
2018-05-27T03:27:15.022Z,23.20
2018-05-27T03:29:42.411Z,24.77
2018-05-27T03:32:09.807Z,24.37
2018-05-27T03:34:37.195Z,24.50
2018-05-27T03:37:04.591Z,22.43
2018-05-27T03:39:31.980Z,22.20
2018-05-27T03:41:59.366Z,23.40
2018-05-27T03:44:26.764Z,24.70
2018-05-27T03:46:54.151Z,24.10
2018-05-27T03:49:21.554Z,24.73
2018-05-27T03:51:48.942Z,23.53
2018-05-27T03:54:16.347Z,24.30
2018-05-27T03:56:43.734Z,23.20
2018-05-27T03:59:11.126Z,25.17
2018-05-27T04:01:38.519Z,23.33
2018-05-27T04:04:18.074Z,23.10
2018-05-27T04:06:57.143Z,23.47
2018-05-27T04:09:24.559Z,23.20
2018-05-27T04:11:51.952Z,22.70
2018-05-27T04:14:19.339Z,23.43
2018-05-27T04:16:46.732Z,22.07
2018-05-27T04:19:14.120Z,23.03
2018-05-27T04:21:41.563Z,22.63
2018-05-27T04:24:08.995Z,23.13
2018-05-27T04:26:36.395Z,22.60
2018-05-27T04:29:03.782Z,22.07
2018-05-27T04:31:31.212Z,22.63
2018-05-27T04:33:58.599Z,21.00
2018-05-27T04:36:26.011Z,21.60
2018-05-27T04:38:53.406Z,21.10
2018-05-27T04:41:20.786Z,21.00
2018-05-27T04:43:48.183Z,20.90
2018-05-27T04:46:15.570Z,23.07
2018-05-27T04:48:42.972Z,21.83
2018-05-27T04:51:10.359Z,20.90
2018-05-27T04:53:37.762Z,22.10
2018-05-27T04:56:05.155Z,21.80
2018-05-27T04:58:32.583Z,19.53
2018-05-27T05:00:59.970Z,21.27
2018-05-27T05:03:27.375Z,20.60
2018-05-27T05:05:54.762Z,21.40
2018-05-27T05:08:22.154Z,21.90
2018-05-27T05:10:49.865Z,20.67
2018-05-27T05:13:17.246Z,20.17
2018-05-27T05:15:44.643Z,22.03
2018-05-27T05:18:12.031Z,20.83
2018-05-27T05:20:39.430Z,21.43
2018-05-27T05:23:06.879Z,20.27
2018-05-27T05:25:34.510Z,20.37
2018-05-27T05:28:01.902Z,19.87
2018-05-27T05:30:29.287Z,20.17
2018-05-27T05:32:56.678Z,19.13
2018-05-27T05:35:24.071Z,19.63
2018-05-27T05:37:51.479Z,19.90
2018-05-27T05:40:18.896Z,20.50
2018-05-27T05:42:46.294Z,20.13
2018-05-27T05:45:13.686Z,18.40
2018-05-27T05:47:41.095Z,20.33
2018-05-27T05:50:08.525Z,20.30
2018-05-27T05:52:35.902Z,19.43
2018-05-27T05:55:03.300Z,18.73
2018-05-27T05:57:30.725Z,20.03
2018-05-27T05:59:58.155Z,20.50
2018-05-27T06:02:25.554Z,19.27
2018-05-27T06:04:52.958Z,20.33
2018-05-27T06:07:20.355Z,19.43
2018-05-27T06:09:47.739Z,18.97
2018-05-27T06:12:15.127Z,19.27
2018-05-27T06:14:42.530Z,17.73
2018-05-27T06:17:09.926Z,18.47
2018-05-27T06:19:37.344Z,19.10
2018-05-27T06:22:04.702Z,18.63
2018-05-27T06:24:32.119Z,18.67
2018-05-27T06:26:59.579Z,19.43
2018-05-27T06:29:26.969Z,20.33
2018-05-27T06:31:54.359Z,18.53
2018-05-27T06:34:21.747Z,19.50
2018-05-27T06:36:49.139Z,19.43
2018-05-27T06:39:16.539Z,18.57
2018-05-27T06:41:43.934Z,18.07
2018-05-27T06:44:11.323Z,18.43
2018-05-27T06:46:38.744Z,19.00
2018-05-27T06:49:06.129Z,17.87
2018-05-27T06:51:33.527Z,17.93
2018-05-27T06:54:00.915Z,19.80
2018-05-27T06:56:28.308Z,18.13
2018-05-27T06:58:55.701Z,19.60
2018-05-27T07:01:23.088Z,18.87
2018-05-27T07:03:50.486Z,17.40
2018-05-27T07:06:17.867Z,19.63
2018-05-27T07:08:45.271Z,18.30
2018-05-27T07:11:12.666Z,19.10
2018-05-27T07:13:40.064Z,19.83
2018-05-27T07:16:07.467Z,19.47
2018-05-27T07:18:34.850Z,19.40
2018-05-27T07:21:02.255Z,19.73
2018-05-27T07:23:29.661Z,19.53
2018-05-27T07:25:57.041Z,19.60
2018-05-27T07:28:24.427Z,20.67
2018-05-27T07:30:51.819Z,19.03
2018-05-27T07:33:19.207Z,21.43
2018-05-27T07:35:46.614Z,21.30
2018-05-27T07:38:14.015Z,19.20
2018-05-27T07:40:41.426Z,19.30
2018-05-27T07:43:08.819Z,19.03
2018-05-27T07:45:36.223Z,21.57
2018-05-27T07:48:03.619Z,19.90
2018-05-27T07:50:31.006Z,21.20
2018-05-27T07:52:58.402Z,18.17
2018-05-27T07:55:25.793Z,20.00
2018-05-27T07:57:53.183Z,19.47
2018-05-27T08:00:20.570Z,21.07
2018-05-27T08:02:47.969Z,20.67
2018-05-27T08:05:15.355Z,19.23
2018-05-27T08:07:42.750Z,20.53
2018-05-27T08:10:10.147Z,18.43
2018-05-27T08:12:37.554Z,18.50
2018-05-27T08:15:04.939Z,20.13
2018-05-27T08:17:32.354Z,18.53
2018-05-27T08:19:59.742Z,20.20
2018-05-27T08:22:27.115Z,19.87
2018-05-27T08:24:54.503Z,19.37
2018-05-27T08:27:21.902Z,21.20
2018-05-27T08:29:49.304Z,18.97
2018-05-27T08:32:16.730Z,19.20
2018-05-27T08:34:44.126Z,20.33
2018-05-27T08:37:11.521Z,21.20
2018-05-27T08:39:38.906Z,19.87
2018-05-27T08:42:06.303Z,20.50
2018-05-27T08:44:33.686Z,19.27
2018-05-27T08:47:01.083Z,19.10
2018-05-27T08:49:28.471Z,19.60
2018-05-27T08:51:55.863Z,20.97
2018-05-27T08:54:23.366Z,21.40
2018-05-27T08:56:50.771Z,19.60
2018-05-27T08:59:18.164Z,18.37
2018-05-27T09:01:45.546Z,17.50
2018-05-27T09:04:12.931Z,18.20
2018-05-27T09:06:40.322Z,17.73
2018-05-27T09:09:07.711Z,17.10
2018-05-27T09:11:35.102Z,17.07
2018-05-27T09:14:02.495Z,18.43
2018-05-27T09:16:29.883Z,17.70
2018-05-27T09:18:57.305Z,18.07
2018-05-27T09:21:24.711Z,18.30
2018-05-27T09:23:52.733Z,18.63
2018-05-27T09:26:20.131Z,17.00
2018-05-27T09:28:47.523Z,17.33
2018-05-27T09:31:14.916Z,16.80
2018-05-27T09:33:42.330Z,16.70
2018-05-27T09:36:09.743Z,15.60
2018-05-27T09:38:37.119Z,16.37
2018-05-27T09:41:04.535Z,17.27
2018-05-27T09:43:31.915Z,16.93
2018-05-27T09:45:59.306Z,17.83
2018-05-27T09:48:26.719Z,18.23
2018-05-27T09:50:54.105Z,18.80
2018-05-27T09:53:21.502Z,16.87
2018-05-27T09:55:48.954Z,18.27
2018-05-27T09:58:16.363Z,17.57
2018-05-27T10:00:43.775Z,17.13
2018-05-27T10:03:11.155Z,17.57
2018-05-27T10:05:38.551Z,18.17
2018-05-27T10:08:05.959Z,16.70
2018-05-27T10:10:33.344Z,17.47
2018-05-27T10:13:00.783Z,17.13
2018-05-27T10:15:28.178Z,17.97
2018-05-27T10:17:55.623Z,17.00
2018-05-27T10:20:23.014Z,18.40
2018-05-27T10:22:50.399Z,18.10
2018-05-27T10:25:17.793Z,17.80
2018-05-27T10:27:45.187Z,17.47
2018-05-27T10:30:12.650Z,18.23
2018-05-27T10:32:40.038Z,17.20
2018-05-27T10:35:07.448Z,17.53
2018-05-27T10:37:34.842Z,16.83
2018-05-27T10:40:02.243Z,16.57
2018-05-27T10:42:29.643Z,16.80
2018-05-27T10:44:57.039Z,16.77
2018-05-27T10:47:24.445Z,17.80
2018-05-27T10:49:51.830Z,16.57
2018-05-27T10:52:19.227Z,16.30
2018-05-27T10:54:46.619Z,16.00
2018-05-27T10:57:14.031Z,16.63
2018-05-27T10:59:41.423Z,18.03
2018-05-27T11:02:08.822Z,18.27
2018-05-27T11:04:36.220Z,18.23
2018-05-27T11:07:03.619Z,17.53
2018-05-27T11:09:31.020Z,18.30
2018-05-27T11:11:58.419Z,17.50
2018-05-27T11:14:25.824Z,17.97
2018-05-27T11:16:53.220Z,16.93
2018-05-27T11:19:20.899Z,17.50
2018-05-27T11:21:48.284Z,17.93
2018-05-27T11:24:16.707Z,17.77
2018-05-27T11:26:44.103Z,17.50
2018-05-27T11:29:11.500Z,19.33
2018-05-27T11:31:38.891Z,18.60
2018-05-27T11:34:06.415Z,18.07
2018-05-27T11:36:33.807Z,17.73
2018-05-27T11:39:01.195Z,17.53
2018-05-27T11:41:28.588Z,17.87
2018-05-27T11:43:55.987Z,17.80
2018-05-27T11:46:23.379Z,17.60
2018-05-27T11:48:50.779Z,19.73
2018-05-27T11:51:18.187Z,18.27
2018-05-27T11:53:46.704Z,19.13
2018-05-27T11:56:14.079Z,18.50
2018-05-27T11:58:41.475Z,17.47
2018-05-27T12:01:08.859Z,18.47
2018-05-27T12:03:36.263Z,17.17
2018-05-27T12:06:03.662Z,17.30
2018-05-27T12:08:31.043Z,17.10
2018-05-27T12:10:58.447Z,17.50
2018-05-27T12:13:25.835Z,17.83
2018-05-27T12:15:53.272Z,17.10
2018-05-27T12:18:20.622Z,18.20
2018-05-27T12:20:48.050Z,18.23
2018-05-27T12:23:15.438Z,18.67
2018-05-27T12:25:42.943Z,18.70
2018-05-27T12:28:10.507Z,18.50
2018-05-27T12:30:37.930Z,19.00
2018-05-27T12:33:05.340Z,18.30
2018-05-27T12:35:32.752Z,17.27
2018-05-27T12:38:00.171Z,16.23
2018-05-27T12:40:27.563Z,18.70
2018-05-27T12:42:55.004Z,17.00
2018-05-27T12:45:22.831Z,16.80
2018-05-27T12:47:50.238Z,17.03
2018-05-27T12:50:17.662Z,16.70
2018-05-27T12:52:45.095Z,17.40
2018-05-27T12:55:12.487Z,16.97
2018-05-27T12:57:40.821Z,17.20
2018-05-27T13:00:08.547Z,17.03
2018-05-27T13:02:35.922Z,16.87
2018-05-27T13:05:03.336Z,16.20
2018-05-27T13:07:30.719Z,17.00
2018-05-27T13:09:58.110Z,17.70
2018-05-27T13:12:25.500Z,17.63
2018-05-27T13:14:52.903Z,17.00
2018-05-27T13:17:20.300Z,17.43
2018-05-27T13:19:47.705Z,16.00
2018-05-27T13:22:15.099Z,17.00
2018-05-27T13:24:42.495Z,16.67
2018-05-27T13:27:09.891Z,16.93
2018-05-27T13:29:37.302Z,16.80
2018-05-27T13:32:04.711Z,17.97
2018-05-27T13:34:32.108Z,16.10
2018-05-27T13:36:59.505Z,17.77
2018-05-27T13:39:26.967Z,16.17
2018-05-27T13:41:54.420Z,16.60
2018-05-27T13:44:21.896Z,16.70
2018-05-27T13:46:49.284Z,16.57
2018-05-27T13:49:16.767Z,16.80
2018-05-27T13:51:44.135Z,17.20
2018-05-27T13:54:11.543Z,17.33
2018-05-27T13:56:39.027Z,17.03
2018-05-27T13:59:06.499Z,16.80
2018-05-27T14:01:33.943Z,18.10
2018-05-27T14:04:01.325Z,16.87
2018-05-27T14:06:28.771Z,17.63
2018-05-27T14:08:56.163Z,17.50
2018-05-27T14:11:23.558Z,16.57
2018-05-27T14:13:50.959Z,16.77
2018-05-27T14:16:18.343Z,17.27
2018-05-27T14:18:45.758Z,16.40
2018-05-27T14:21:13.138Z,16.90
2018-05-27T14:23:40.863Z,16.13
2018-05-27T14:26:08.283Z,16.10
2018-05-27T14:28:35.671Z,14.77
2018-05-27T14:31:03.071Z,14.10
2018-05-27T14:33:30.447Z,16.10
2018-05-27T14:35:57.843Z,15.50
2018-05-27T14:38:25.365Z,15.57
2018-05-27T14:40:52.759Z,15.90
2018-05-27T14:43:20.155Z,16.07
2018-05-27T14:45:47.540Z,16.20
2018-05-27T14:48:14.939Z,16.27
2018-05-27T14:50:42.374Z,14.60
2018-05-27T14:53:09.789Z,14.00
2018-05-27T14:55:37.171Z,14.33
2018-05-27T14:58:06.957Z,14.67
2018-05-27T15:00:34.363Z,14.07
2018-05-27T15:03:01.735Z,15.20
2018-05-27T15:05:29.207Z,14.20
2018-05-27T15:07:56.739Z,15.37
2018-05-27T15:10:24.130Z,16.13
2018-05-27T15:12:51.516Z,15.27
2018-05-27T15:15:18.911Z,14.67
2018-05-27T15:17:46.309Z,15.50
2018-05-27T15:20:13.700Z,16.27
2018-05-27T15:22:41.118Z,16.73
2018-05-27T15:25:08.503Z,16.20
2018-05-27T15:27:36.793Z,17.07
2018-05-27T15:30:04.182Z,19.20
2018-05-27T15:32:31.584Z,18.43
2018-05-27T15:34:58.971Z,18.70
2018-05-27T15:37:26.363Z,18.27
2018-05-27T15:39:53.759Z,17.30
2018-05-27T15:42:21.150Z,17.13
2018-05-27T15:44:48.543Z,17.53
2018-05-27T15:47:15.935Z,17.30
2018-05-27T15:49:43.387Z,17.57
2018-05-27T15:52:10.822Z,16.63
2018-05-27T15:54:38.219Z,16.83
2018-05-27T15:57:05.609Z,17.07
2018-05-27T15:59:33.003Z,19.30
2018-05-27T16:02:00.483Z,32.33
2018-05-27T16:04:27.871Z,61.67
2018-05-27T16:06:55.362Z,22.50
2018-05-27T16:09:23.542Z,17.63
2018-05-27T16:11:50.955Z,15.97
2018-05-27T16:14:18.432Z,16.47
2018-05-27T16:16:45.902Z,15.47
2018-05-27T16:19:13.577Z,16.30
2018-05-27T16:21:40.973Z,17.43
2018-05-27T16:24:08.351Z,17.73
2018-05-27T16:26:35.752Z,17.20
2018-05-27T16:29:03.179Z,18.10
2018-05-27T16:31:30.587Z,19.73
2018-05-27T16:33:57.996Z,19.27
2018-05-27T16:36:25.397Z,18.80
2018-05-27T16:38:52.814Z,20.80
2018-05-27T16:41:20.208Z,19.80
2018-05-27T16:43:47.590Z,19.90
2018-05-27T16:46:15.035Z,21.93
2018-05-27T16:48:42.479Z,20.47
2018-05-27T16:51:09.911Z,21.17
2018-05-27T16:53:37.323Z,21.60
2018-05-27T16:56:04.720Z,21.10
2018-05-27T16:58:32.123Z,20.50
2018-05-27T17:00:59.503Z,21.13
2018-05-27T17:03:26.898Z,21.70
2018-05-27T17:05:54.300Z,19.67
2018-05-27T17:08:21.733Z,20.10
2018-05-27T17:10:49.207Z,21.63
2018-05-27T17:13:16.790Z,20.00
2018-05-27T17:15:44.190Z,20.10
2018-05-27T17:18:11.607Z,21.10
2018-05-27T17:20:39.024Z,20.53
2018-05-27T17:23:06.413Z,21.13
2018-05-27T17:25:33.815Z,20.13
2018-05-27T17:28:01.203Z,18.87
2018-05-27T17:30:28.591Z,19.87
2018-05-27T17:32:55.986Z,18.70
2018-05-27T17:35:23.383Z,19.47
2018-05-27T17:37:50.780Z,19.13
2018-05-27T17:40:18.167Z,19.67
2018-05-27T17:42:45.567Z,19.43
2018-05-27T17:45:12.959Z,19.50
2018-05-27T17:47:40.358Z,20.17
2018-05-27T17:50:07.763Z,19.40
2018-05-27T17:52:35.151Z,20.13
2018-05-27T17:55:02.551Z,19.43
2018-05-27T17:57:29.999Z,19.13
2018-05-27T17:59:57.368Z,19.07
2018-05-27T18:02:24.794Z,19.03
2018-05-27T18:04:52.179Z,18.77
2018-05-27T18:07:19.564Z,18.50
2018-05-27T18:09:46.997Z,19.53
2018-05-27T18:12:14.355Z,17.47
2018-05-27T18:14:41.788Z,19.00
2018-05-27T18:17:09.209Z,18.37
2018-05-27T18:19:36.624Z,18.07
2018-05-27T18:22:04.020Z,18.07
2018-05-27T18:24:31.402Z,18.97
2018-05-27T18:26:58.799Z,18.37
2018-05-27T18:29:26.188Z,18.97
2018-05-27T18:31:53.604Z,19.33
2018-05-27T18:34:20.971Z,17.90
2018-05-27T18:36:48.364Z,18.10
2018-05-27T18:39:15.759Z,19.97
2018-05-27T18:41:43.147Z,18.53
2018-05-27T18:44:11.155Z,18.27
2018-05-27T18:46:38.543Z,19.10
2018-05-27T18:49:05.939Z,18.60
2018-05-27T18:51:33.328Z,19.77
2018-05-27T18:54:00.964Z,19.00
2018-05-27T18:56:28.351Z,19.07
2018-05-27T18:58:55.740Z,19.13
2018-05-27T19:01:23.133Z,19.27
2018-05-27T19:03:50.518Z,19.77
2018-05-27T19:06:17.907Z,20.33
2018-05-27T19:08:45.299Z,22.80
2018-05-27T19:11:12.692Z,22.87
2018-05-27T19:13:40.182Z,20.97
2018-05-27T19:16:07.585Z,21.33
2018-05-27T19:18:34.973Z,22.13
2018-05-27T19:21:02.365Z,23.37
2018-05-27T19:23:29.803Z,22.03
2018-05-27T19:25:57.198Z,22.97
2018-05-27T19:28:24.600Z,24.30
2018-05-27T19:30:51.987Z,22.27
2018-05-27T19:33:19.393Z,22.47
2018-05-27T19:35:46.776Z,22.67
2018-05-27T19:38:14.562Z,22.33
2018-05-27T19:40:41.951Z,24.03
2018-05-27T19:43:09.347Z,23.60
2018-05-27T19:45:36.813Z,23.00
2018-05-27T19:48:04.199Z,23.33
2018-05-27T19:50:31.599Z,23.23
2018-05-27T19:52:58.989Z,23.50
2018-05-27T19:55:26.563Z,23.37
2018-05-27T19:57:53.946Z,26.73
2018-05-27T20:00:21.680Z,22.93
2018-05-27T20:02:49.071Z,27.43
2018-05-27T20:05:16.458Z,26.20
2018-05-27T20:07:43.859Z,25.10
2018-05-27T20:10:11.250Z,24.90
2018-05-27T20:12:38.655Z,23.53
2018-05-27T20:15:06.091Z,23.77
2018-05-27T20:17:33.443Z,24.97
2018-05-27T20:20:00.827Z,23.93
2018-05-27T20:22:28.223Z,22.90
2018-05-27T20:24:55.620Z,22.33
2018-05-27T20:27:23.006Z,22.93
2018-05-27T20:29:50.400Z,23.00
2018-05-27T20:32:17.787Z,22.20
2018-05-27T20:34:45.179Z,22.83
2018-05-27T20:37:12.571Z,22.70
2018-05-27T20:39:39.978Z,24.17
2018-05-27T20:42:07.359Z,23.40
2018-05-27T20:44:34.748Z,23.67
2018-05-27T20:47:02.147Z,23.03
2018-05-27T20:49:29.539Z,23.00
2018-05-27T20:51:56.934Z,23.50
2018-05-27T20:54:24.319Z,24.43
2018-05-27T20:56:51.715Z,25.10
2018-05-27T20:59:19.106Z,22.80
2018-05-27T21:01:46.512Z,22.47
2018-05-27T21:04:13.898Z,23.10
2018-05-27T21:06:41.287Z,23.63
2018-05-27T21:09:08.679Z,23.30
2018-05-27T21:11:36.073Z,25.00
2018-05-27T21:14:03.459Z,24.30
2018-05-27T21:16:30.851Z,25.93
2018-05-27T21:18:58.247Z,24.80
2018-05-27T21:21:25.631Z,23.73
2018-05-27T21:23:53.029Z,27.63
2018-05-27T21:26:21.247Z,27.23
2018-05-27T21:28:48.644Z,27.90
2018-05-27T21:31:16.031Z,28.33
2018-05-27T21:33:43.483Z,27.60
2018-05-27T21:36:10.915Z,29.60
2018-05-27T21:38:38.306Z,28.87
2018-05-27T21:41:05.699Z,28.13
2018-05-27T21:43:33.087Z,27.00
2018-05-27T21:46:00.510Z,28.73
2018-05-27T21:48:27.903Z,29.37
2018-05-27T21:50:55.291Z,28.03
2018-05-27T21:53:22.683Z,28.60
2018-05-27T21:55:50.073Z,28.40
2018-05-27T21:58:17.472Z,26.23
2018-05-27T22:00:44.879Z,26.03
2018-05-27T22:03:12.271Z,24.73
2018-05-27T22:05:39.659Z,26.13
2018-05-27T22:08:07.043Z,27.20
2018-05-27T22:10:34.444Z,26.37
2018-05-27T22:13:01.831Z,25.13
2018-05-27T22:15:29.319Z,25.30
2018-05-27T22:17:57.115Z,26.33
2018-05-27T22:20:24.546Z,26.97
2018-05-27T22:22:51.919Z,23.50
2018-05-27T22:25:19.307Z,25.40
2018-05-27T22:27:46.703Z,26.60
2018-05-27T22:30:14.086Z,27.03
2018-05-27T22:32:41.491Z,25.63
2018-05-27T22:35:08.867Z,25.60
2018-05-27T22:37:36.266Z,24.27
2018-05-27T22:40:03.655Z,25.67
2018-05-27T22:42:31.049Z,27.17
2018-05-27T22:44:58.440Z,25.40
2018-05-27T22:47:25.819Z,26.03
2018-05-27T22:49:53.208Z,26.90
2018-05-27T22:52:20.599Z,25.30
2018-05-27T22:54:47.987Z,25.57
2018-05-27T22:57:15.542Z,26.70
2018-05-27T22:59:42.935Z,27.50
2018-05-27T23:02:10.328Z,28.87
2018-05-27T23:04:37.710Z,27.53
2018-05-27T23:07:05.108Z,27.53
2018-05-27T23:09:32.491Z,28.30
2018-05-27T23:11:59.898Z,26.97
2018-05-27T23:14:27.287Z,27.87
2018-05-27T23:16:54.679Z,26.93
2018-05-27T23:19:22.124Z,26.17
2018-05-27T23:21:49.523Z,26.10
2018-05-27T23:24:16.911Z,25.17
2018-05-27T23:26:44.303Z,24.90
2018-05-27T23:29:11.699Z,24.77
2018-05-27T23:31:39.092Z,25.63
2018-05-27T23:34:06.483Z,25.23
2018-05-27T23:36:33.875Z,26.03
2018-05-27T23:39:01.271Z,24.07
2018-05-27T23:41:28.655Z,23.53
2018-05-27T23:43:56.067Z,25.13
2018-05-27T23:46:23.464Z,25.80
2018-05-27T23:48:50.847Z,25.03
2018-05-27T23:51:18.239Z,25.03
2018-05-27T23:53:45.695Z,24.80
2018-05-27T23:56:13.090Z,24.97
2018-05-27T23:58:40.483Z,23.97
